69CL weather

Medlock Field
Davis, California, United States

Public forecast

Using degrees Fahrenheit for public forecast. Weather courtesy of forecast.io.

Closest aviation weather report (METAR) to Medlock Field

Closest report is University Airport, 5.4 nm (9.9 km) SSW. Retrieved 2019/12/05 16:15 UTC (38 minutes ago):

KEDU 051615Z AUTO 00000KT 4SM BKN003 OVC022 12/12 A3010 RMK AO1

Closest aviation forecast (TAF) to Medlock Field

Closest forecast is Sacramento International Airport, 8.7 nm (16.2 km) ENE. Retrieved 2019/12/05 12:46 UTC (4 hours ago):

TAF KSMF 051144Z 0512/0612 00000KT 2SM BR FEW003 OVC020 FM051300 VRB03KT 1/2SM FG OVC003 FM051600 36004KT 1 1/2SM BR OVC005 FM051800 12004KT 6SM BR FEW005 OVC010 FM052100 15004KT P6SM OVC025 FM060100 VRB03KT P6SM OVC050